createdAt,value
2014-07-28T00:00:20.987Z,22.83
2014-07-28T00:01:25.676Z,22.79
2014-07-28T00:02:30.367Z,23.22
2014-07-28T00:03:35.041Z,23.18
2014-07-28T00:04:40.027Z,23.17
2014-07-28T00:05:44.717Z,23.06
2014-07-28T00:06:49.391Z,23
2014-07-28T00:07:54.377Z,22.8
2014-07-28T00:08:59.067Z,22.96
2014-07-28T00:10:03.740Z,22.94
2014-07-28T00:11:08.431Z,22.94
2014-07-28T00:12:13.417Z,22.7
2014-07-28T00:13:18.106Z,22.71
2014-07-28T00:14:23.093Z,22.74
2014-07-28T00:15:27.767Z,22.69
2014-07-28T00:16:32.753Z,22.69
2014-07-28T00:17:37.443Z,22.55
2014-07-28T00:18:42.116Z,22.6
2014-07-28T00:19:46.806Z,22.84
2014-07-28T00:20:51.496Z,22.78
2014-07-28T00:21:56.170Z,22.82
2014-07-28T00:23:00.859Z,22.92
2014-07-28T00:24:05.549Z,23.09
2014-07-28T00:25:09.847Z,23.15
2014-07-28T00:26:14.834Z,23.07
2014-07-28T00:27:19.523Z,23.02
2014-07-28T00:28:24.509Z,22.96
2014-07-28T00:29:29.198Z,23.09
2014-07-28T00:30:33.875Z,22.97
2014-07-28T00:31:38.876Z,22.9
2014-07-28T00:32:43.567Z,22.79
2014-07-28T00:33:48.256Z,22.79
2014-07-28T00:34:52.945Z,22.94
2014-07-28T00:35:57.932Z,23.03
2014-07-28T00:37:02.605Z,22.98
2014-07-28T00:38:07.294Z,22.93
2014-07-28T00:39:11.984Z,23.02
2014-07-28T00:40:16.674Z,22.82
2014-07-28T00:41:21.364Z,22.84
2014-07-28T00:42:26.335Z,22.64
2014-07-28T00:43:31.024Z,22.52
2014-07-28T00:44:36.010Z,22.59
2014-07-28T00:45:40.700Z,22.51
2014-07-28T00:46:44.686Z,22.54
2014-07-28T00:47:49.376Z,22.65
2014-07-28T00:48:54.065Z,22.48
2014-07-28T00:49:58.755Z,22.58
2014-07-28T00:51:03.429Z,22.88
2014-07-28T00:52:08.415Z,22.92
2014-07-28T00:53:13.104Z,22.84
2014-07-28T00:54:17.793Z,22.67
2014-07-28T00:55:22.483Z,22.56
2014-07-28T00:56:27.172Z,22.53
2014-07-28T00:57:31.848Z,22.77
2014-07-28T00:58:36.537Z,22.93
2014-07-28T00:59:41.525Z,22.93
2014-07-28T01:00:46.213Z,23.01
2014-07-28T01:01:50.903Z,23.05
2014-07-28T01:02:55.889Z,22.94
2014-07-28T01:04:00.579Z,22.78
2014-07-28T01:05:05.268Z,22.87
2014-07-28T01:06:09.959Z,22.98
2014-07-28T01:07:14.648Z,22.7
2014-07-28T01:08:19.338Z,22.56
2014-07-28T01:09:24.027Z,22.53
2014-07-28T01:10:29.014Z,22.68
2014-07-28T01:11:33.703Z,22.74
2014-07-28T01:12:38.393Z,22.78
2014-07-28T01:13:43.379Z,22.69
2014-07-28T01:14:48.365Z,22.31
2014-07-28T01:15:53.055Z,22.21
2014-07-28T01:16:58.041Z,22.37
2014-07-28T01:18:03.028Z,22.18
2014-07-28T01:19:07.718Z,22.14
2014-07-28T01:20:12.392Z,22.18
2014-07-28T01:21:17.097Z,22.27
2014-07-28T01:22:21.771Z,22.07
2014-07-28T01:23:26.460Z,22.05
2014-07-28T01:24:31.151Z,22.31
2014-07-28T01:25:36.152Z,22.43
2014-07-28T01:26:40.826Z,22.57
2014-07-28T01:27:45.515Z,22.51
2014-07-28T01:28:50.206Z,22.65
2014-07-28T01:29:54.894Z,22.61
2014-07-28T01:30:59.882Z,22.3
2014-07-28T01:32:04.556Z,22.38
2014-07-28T01:33:09.245Z,22.48
2014-07-28T01:34:14.231Z,22.48
2014-07-28T01:35:19.201Z,22.66
2014-07-28T01:36:24.189Z,22.5
2014-07-28T01:37:28.878Z,22.58
2014-07-28T01:38:33.568Z,22.44
2014-07-28T01:39:38.241Z,22.36
2014-07-28T01:40:42.931Z,22.42
2014-07-28T01:41:47.620Z,22.48
2014-07-28T01:42:52.310Z,22.59
2014-07-28T01:43:56.985Z,22.51
2014-07-28T01:45:01.673Z,22.4
2014-07-28T01:46:06.364Z,22.35
2014-07-28T01:47:11.052Z,22.38
2014-07-28T01:48:16.040Z,22.33
2014-07-28T01:49:20.714Z,22.34
2014-07-28T01:50:25.403Z,22.24
2014-07-28T01:51:30.093Z,22.37
2014-07-28T01:52:34.782Z,22.49
2014-07-28T01:53:39.472Z,22.52
2014-07-28T01:54:44.145Z,22.09
2014-07-28T01:55:49.132Z,22.01
2014-07-28T01:56:53.821Z,22.14
2014-07-28T01:57:58.511Z,22.26
2014-07-28T01:59:03.186Z,22.25
2014-07-28T02:00:07.874Z,22.17
2014-07-28T02:01:12.565Z,22.26
2014-07-28T02:02:17.254Z,22.09
2014-07-28T02:03:21.928Z,21.86
2014-07-28T02:04:26.914Z,21.88
2014-07-28T02:05:31.604Z,22.1
2014-07-28T02:06:36.292Z,22.3
2014-07-28T02:07:40.967Z,22.49
2014-07-28T02:08:45.954Z,22.31
2014-07-28T02:09:50.643Z,22.3
2014-07-28T02:10:55.334Z,22.23
2014-07-28T02:12:00.007Z,22.2
2014-07-28T02:13:04.697Z,21.98
2014-07-28T02:14:09.386Z,21.99
2014-07-28T02:15:14.076Z,22.1
2014-07-28T02:16:18.766Z,22.2
2014-07-28T02:17:23.455Z,21.97
2014-07-28T02:18:28.441Z,21.97
2014-07-28T02:19:33.115Z,22.32
2014-07-28T02:20:37.805Z,22.06
2014-07-28T02:21:42.494Z,21.86
2014-07-28T02:22:47.168Z,21.72
2014-07-28T02:23:51.858Z,21.66
2014-07-28T02:24:56.547Z,21.73
2014-07-28T02:26:01.535Z,21.7
2014-07-28T02:27:06.504Z,21.65
2014-07-28T02:28:11.491Z,21.54
2014-07-28T02:29:16.180Z,21.82
2014-07-28T02:30:21.168Z,21.83
2014-07-28T02:31:26.153Z,22.02
2014-07-28T02:32:30.842Z,21.86
2014-07-28T02:33:35.516Z,21.72
2014-07-28T02:34:40.207Z,21.86
2014-07-28T02:35:45.192Z,21.69
2014-07-28T02:36:49.883Z,21.82
2014-07-28T02:37:54.869Z,21.95
2014-07-28T02:38:59.840Z,21.88
2014-07-28T02:40:04.529Z,21.76
2014-07-28T02:41:09.516Z,21.78
2014-07-28T02:42:14.205Z,21.74
2014-07-28T02:43:19.192Z,21.88
2014-07-28T02:44:23.865Z,21.73
2014-07-28T02:45:28.556Z,21.82
2014-07-28T02:46:33.245Z,21.36
2014-07-28T02:47:37.935Z,21.34
2014-07-28T02:48:42.624Z,21.18
2014-07-28T02:49:47.314Z,21.26
2014-07-28T02:50:52.300Z,21.48
2014-07-28T02:51:56.990Z,21.54
2014-07-28T02:53:01.664Z,21.57
2014-07-28T02:54:06.649Z,21.66
2014-07-28T02:55:11.635Z,21.72
2014-07-28T02:56:16.325Z,21.72
2014-07-28T02:57:21.014Z,21.8
2014-07-28T02:58:25.986Z,21.76
2014-07-28T02:59:30.676Z,21.62
2014-07-28T03:00:35.366Z,21.66
2014-07-28T03:01:40.353Z,21.68
2014-07-28T03:02:44.339Z,21.68
2014-07-28T03:03:49.028Z,21.81
2014-07-28T03:04:54.014Z,21.89
2014-07-28T03:05:58.689Z,21.84
2014-07-28T03:07:03.378Z,21.73
2014-07-28T03:08:08.068Z,21.83
2014-07-28T03:09:13.054Z,21.93
2014-07-28T03:10:17.729Z,21.78
2014-07-28T03:11:22.714Z,21.72
2014-07-28T03:12:27.405Z,21.89
2014-07-28T03:13:32.390Z,21.84
2014-07-28T03:14:37.064Z,21.72
2014-07-28T03:15:41.754Z,21.55
2014-07-28T03:16:46.443Z,21.56
2014-07-28T03:17:51.117Z,21.76
2014-07-28T03:18:55.806Z,21.93
2014-07-28T03:20:00.496Z,21.92
2014-07-28T03:21:05.482Z,22.09
2014-07-28T03:22:10.156Z,22.14
2014-07-28T03:23:15.144Z,22.04
2014-07-28T03:24:19.834Z,21.88
2014-07-28T03:25:24.508Z,21.6
2014-07-28T03:26:29.196Z,21.83
2014-07-28T03:27:33.886Z,21.89
2014-07-28T03:28:38.575Z,22.02
2014-07-28T03:29:43.562Z,22.08
2014-07-28T03:30:48.236Z,22.09
2014-07-28T03:31:52.925Z,22.15
2014-07-28T03:32:57.615Z,22.17
2014-07-28T03:34:02.304Z,22.06
2014-07-28T03:35:06.979Z,21.65
2014-07-28T03:36:10.981Z,21.81
2014-07-28T03:37:15.967Z,21.75
2014-07-28T03:38:20.954Z,21.44
2014-07-28T03:39:25.643Z,21.19
2014-07-28T03:40:30.630Z,20.98
2014-07-28T03:41:35.319Z,20.92
2014-07-28T03:42:39.994Z,20.7
2014-07-28T03:43:44.979Z,20.96
2014-07-28T03:44:49.670Z,21.1
2014-07-28T03:45:54.656Z,21.12
2014-07-28T03:46:59.329Z,21.4
2014-07-28T03:48:04.020Z,21.5
2014-07-28T03:49:09.006Z,21.6
2014-07-28T03:50:13.008Z,21.6
2014-07-28T03:51:17.682Z,21.63
2014-07-28T03:52:22.371Z,21.72
2014-07-28T03:53:27.061Z,21.72
2014-07-28T03:54:32.048Z,21.75
2014-07-28T03:55:36.737Z,21.78
2014-07-28T03:56:41.426Z,21.72
2014-07-28T03:57:46.413Z,21.27
2014-07-28T03:58:51.102Z,21.26
2014-07-28T03:59:55.793Z,21.38
2014-07-28T04:01:00.482Z,21.01
2014-07-28T04:02:05.156Z,21.35
2014-07-28T04:03:10.142Z,21.63
2014-07-28T04:04:15.129Z,21.49
2014-07-28T04:05:20.428Z,21.38
2014-07-28T04:06:25.414Z,21.38
2014-07-28T04:07:30.104Z,21.05
2014-07-28T04:08:34.777Z,21.06
2014-07-28T04:09:39.467Z,21.02
2014-07-28T04:10:44.156Z,20.94
2014-07-28T04:11:48.846Z,20.99
2014-07-28T04:12:53.534Z,20.8
2014-07-28T04:13:58.224Z,21.11
2014-07-28T04:15:02.913Z,21.32
2014-07-28T04:16:07.900Z,21.75
2014-07-28T04:17:12.886Z,21.62
2014-07-28T04:18:17.578Z,21.58
2014-07-28T04:19:22.266Z,21.56
2014-07-28T04:20:27.254Z,21.56
2014-07-28T04:21:32.240Z,21.37
2014-07-28T04:22:36.929Z,21.48
2014-07-28T04:23:41.635Z,21.6
2014-07-28T04:24:46.621Z,21.7
2014-07-28T04:25:51.606Z,21.68
2014-07-28T04:26:56.297Z,21.65
2014-07-28T04:28:00.972Z,21.72
2014-07-28T04:29:05.958Z,21.66
2014-07-28T04:30:10.943Z,21.62
2014-07-28T04:31:15.931Z,21.63
2014-07-28T04:32:20.916Z,21.78
2014-07-28T04:33:25.607Z,21.98
2014-07-28T04:34:30.312Z,21.68
2014-07-28T04:35:35.001Z,21.49
2014-07-28T04:36:39.988Z,21.36
2014-07-28T04:37:44.662Z,21.46
2014-07-28T04:38:49.367Z,21.5
2014-07-28T04:39:54.056Z,21.56
2014-07-28T04:40:58.730Z,21.74
2014-07-28T04:42:03.420Z,21.92
2014-07-28T04:43:08.108Z,21.94
2014-07-28T04:44:12.798Z,21.85
2014-07-28T04:45:17.487Z,21.54
2014-07-28T04:46:22.177Z,21.79
2014-07-28T04:47:26.866Z,21.64
2014-07-28T04:48:31.558Z,21.65
2014-07-28T04:49:36.247Z,21.76
2014-07-28T04:50:41.232Z,22.03
2014-07-28T04:51:45.922Z,21.88
2014-07-28T04:52:50.611Z,22.1
2014-07-28T04:53:55.301Z,22.24
2014-07-28T04:54:59.990Z,22.31
2014-07-28T04:56:04.681Z,22.49
2014-07-28T04:57:09.356Z,22.52
2014-07-28T04:58:14.044Z,22.66
2014-07-28T04:59:18.735Z,22.64
2014-07-28T05:00:23.409Z,22.6
2014-07-28T05:01:28.097Z,22.78
2014-07-28T05:02:32.787Z,23.04
2014-07-28T05:03:37.461Z,23.1
2014-07-28T05:04:42.151Z,23.05
2014-07-28T05:05:46.841Z,22.92
2014-07-28T05:06:51.546Z,22.96
2014-07-28T05:07:56.828Z,23.04
2014-07-28T05:09:01.799Z,23.18
2014-07-28T05:10:06.488Z,23.18
2014-07-28T05:11:11.178Z,23.4
2014-07-28T05:12:15.852Z,23.53
2014-07-28T05:13:20.541Z,23.64
2014-07-28T05:14:25.231Z,23.67
2014-07-28T05:15:29.905Z,23.5
2014-07-28T05:16:34.595Z,23.48
2014-07-28T05:17:39.284Z,23.51
2014-07-28T05:18:44.272Z,23.43
2014-07-28T05:19:49.242Z,23.17
2014-07-28T05:20:53.932Z,23.19
2014-07-28T05:21:58.621Z,23.22
2014-07-28T05:23:03.311Z,23.06
2014-07-28T05:24:07.984Z,23.17
2014-07-28T05:25:12.674Z,23.3
2014-07-28T05:26:17.363Z,23.27
2014-07-28T05:27:22.350Z,23.12
2014-07-28T05:28:27.039Z,23.06
2014-07-28T05:29:32.025Z,23.01
2014-07-28T05:30:36.699Z,22.94
2014-07-28T05:31:41.389Z,22.62
2014-07-28T05:32:46.078Z,22.8
2014-07-28T05:33:50.752Z,22.72
2014-07-28T05:34:55.441Z,22.1
2014-07-28T05:36:00.117Z,21.79
2014-07-28T05:37:04.807Z,22.08
2014-07-28T05:38:09.793Z,21.8
2014-07-28T05:39:14.466Z,21.74
2014-07-28T05:40:19.157Z,21.58
2014-07-28T05:41:24.142Z,21.51
2014-07-28T05:42:29.129Z,21.62
2014-07-28T05:43:33.803Z,21.69
2014-07-28T05:44:38.790Z,21.75
2014-07-28T05:45:43.478Z,21.67
2014-07-28T05:46:48.168Z,21.84
2014-07-28T05:47:52.857Z,22.08
2014-07-28T05:48:57.828Z,22.13
2014-07-28T05:50:02.814Z,22.34
2014-07-28T05:51:07.504Z,22.37
2014-07-28T05:52:12.194Z,21.86
2014-07-28T05:53:17.181Z,21.62
2014-07-28T05:54:21.871Z,22.16
2014-07-28T05:55:27.139Z,22.06
2014-07-28T05:56:31.828Z,21.94
2014-07-28T05:57:36.519Z,22.41
2014-07-28T05:58:41.192Z,22.46
2014-07-28T05:59:45.881Z,22.25
2014-07-28T06:00:50.867Z,22.3
2014-07-28T06:01:55.541Z,22.41
2014-07-28T06:03:00.231Z,22.37
2014-07-28T06:04:04.905Z,22.5
2014-07-28T06:05:09.594Z,22.56
2014-07-28T06:06:14.581Z,22.49
2014-07-28T06:07:19.270Z,22.7
2014-07-28T06:08:23.944Z,22.44
2014-07-28T06:09:28.632Z,22.56
2014-07-28T06:10:33.619Z,21.77
2014-07-28T06:11:38.309Z,22.06
2014-07-28T06:12:42.999Z,22.42
2014-07-28T06:13:47.687Z,22.5
2014-07-28T06:14:52.675Z,22.6
2014-07-28T06:15:57.645Z,22.76
2014-07-28T06:17:02.634Z,22.7
2014-07-28T06:18:07.322Z,22.66
2014-07-28T06:19:12.310Z,22.67
2014-07-28T06:20:17.280Z,22.66
2014-07-28T06:21:21.970Z,22.87
2014-07-28T06:22:26.658Z,22.94
2014-07-28T06:23:31.629Z,23.19
2014-07-28T06:24:36.319Z,23.31
2014-07-28T06:25:41.306Z,23.24
2014-07-28T06:26:45.996Z,23.17
2014-07-28T06:27:50.668Z,23.78
2014-07-28T06:28:55.359Z,25.33
2014-07-28T06:30:00.360Z,25.19
2014-07-28T06:31:05.049Z,25.1
2014-07-28T06:32:09.740Z,24.7
2014-07-28T06:33:14.413Z,24.9
2014-07-28T06:34:19.102Z,25.02
2014-07-28T06:35:23.792Z,24.53
2014-07-28T06:36:28.466Z,24.49
2014-07-28T06:37:33.157Z,24.61
2014-07-28T06:38:37.847Z,24.41
2014-07-28T06:39:42.535Z,24.07
2014-07-28T06:40:47.209Z,23.85
2014-07-28T06:41:51.899Z,23.56
2014-07-28T06:42:56.588Z,23.4
2014-07-28T06:44:01.278Z,23.41
2014-07-28T06:45:05.967Z,23.2
2014-07-28T06:46:10.641Z,23.02
2014-07-28T06:47:15.346Z,23.3
2014-07-28T06:48:20.614Z,23.38
2014-07-28T06:49:25.303Z,23.39
2014-07-28T06:50:30.292Z,23.47
2014-07-28T06:51:34.981Z,23.41
2014-07-28T06:52:39.670Z,23.59
2014-07-28T06:53:44.359Z,24.25
2014-07-28T06:54:49.330Z,24.38
2014-07-28T06:55:54.613Z,24.75
2014-07-28T06:56:59.303Z,25
2014-07-28T06:58:03.289Z,24.64
2014-07-28T06:59:07.978Z,24.63
2014-07-28T07:00:12.965Z,24.94
2014-07-28T07:01:17.654Z,24.8
2014-07-28T07:02:22.625Z,25.07
2014-07-28T07:03:27.316Z,25.19
2014-07-28T07:04:32.005Z,25.3
2014-07-28T07:05:36.694Z,25.17
2014-07-28T07:06:41.385Z,25.11
2014-07-28T07:07:46.059Z,24.82
2014-07-28T07:08:51.045Z,24.86
2014-07-28T07:09:55.736Z,24.91
2014-07-28T07:11:00.425Z,24.94
2014-07-28T07:12:05.115Z,24.81
2014-07-28T07:13:10.085Z,24.85
2014-07-28T07:14:14.775Z,24.94
2014-07-28T07:15:19.464Z,25.11
2014-07-28T07:16:24.153Z,25.27
2014-07-28T07:17:28.843Z,25.05
2014-07-28T07:18:33.549Z,25.06
2014-07-28T07:19:38.222Z,25.06
2014-07-28T07:20:43.209Z,25.08
2014-07-28T07:21:47.897Z,24.94
2014-07-28T07:22:52.588Z,24.88
2014-07-28T07:23:57.277Z,25.12
2014-07-28T07:25:01.982Z,24.95
2014-07-28T07:26:06.969Z,24.9
2014-07-28T07:27:11.658Z,25.03
2014-07-28T07:28:16.331Z,24.84
2014-07-28T07:29:21.022Z,24.92
2014-07-28T07:30:26.007Z,25.42
2014-07-28T07:31:30.697Z,25.13
2014-07-28T07:32:35.684Z,24.91
2014-07-28T07:33:40.374Z,25.18
2014-07-28T07:34:45.062Z,25.55
2014-07-28T07:35:49.737Z,25.48
2014-07-28T07:36:54.442Z,25.4
2014-07-28T07:37:59.428Z,24.99
2014-07-28T07:39:04.118Z,25
2014-07-28T07:40:09.089Z,25.48
2014-07-28T07:41:13.778Z,25.9
2014-07-28T07:42:18.468Z,25.54
2014-07-28T07:43:23.156Z,25.48
2014-07-28T07:44:27.846Z,25.77
2014-07-28T07:45:32.522Z,25.78
2014-07-28T07:46:37.508Z,25.55
2014-07-28T07:47:42.197Z,25.78
2014-07-28T07:48:46.887Z,25.98
2014-07-28T07:49:51.576Z,25.91
2014-07-28T07:50:56.266Z,25.99
2014-07-28T07:52:00.955Z,26.04
2014-07-28T07:53:05.645Z,26.22
2014-07-28T07:54:10.631Z,26.11
2014-07-28T07:55:15.618Z,26.15
2014-07-28T07:56:20.604Z,26.36
2014-07-28T07:57:25.308Z,26.34
2014-07-28T07:58:30.000Z,26.51
2014-07-28T07:59:34.689Z,26.63
2014-07-28T08:00:39.676Z,26.94
2014-07-28T08:01:44.364Z,27.11
2014-07-28T08:02:49.083Z,26.83
2014-07-28T08:03:53.816Z,26.98
2014-07-28T08:04:58.840Z,27.13
2014-07-28T08:06:03.573Z,27.17
2014-07-28T08:07:08.301Z,27.24
2014-07-28T08:08:13.015Z,27.25
2014-07-28T08:09:17.718Z,27.19
2014-07-28T08:10:22.719Z,27.29
2014-07-28T08:11:27.423Z,27.58
2014-07-28T08:12:32.431Z,27.61
2014-07-28T08:13:37.140Z,27.74
2014-07-28T08:14:41.835Z,27.63
2014-07-28T08:15:46.530Z,27.75
2014-07-28T08:16:51.209Z,27.76
2014-07-28T08:17:55.916Z,27.7
2014-07-28T08:19:00.889Z,27.42
2014-07-28T08:20:05.581Z,27.26
2014-07-28T08:21:10.272Z,27.37
2014-07-28T08:22:14.964Z,27.13
2014-07-28T08:23:19.653Z,27.37
2014-07-28T08:24:24.344Z,27.58
2014-07-28T08:25:29.330Z,27.68
2014-07-28T08:26:34.021Z,27.76
2014-07-28T08:27:38.710Z,27.79
2014-07-28T08:28:43.401Z,27.43
2014-07-28T08:29:48.090Z,27.33
2014-07-28T08:30:52.780Z,27.35
2014-07-28T08:31:57.469Z,27.12
2014-07-28T08:33:02.160Z,26.93
2014-07-28T08:34:07.443Z,27.32
2014-07-28T08:35:12.429Z,27.44
2014-07-28T08:36:17.134Z,27.51
2014-07-28T08:37:21.824Z,27.37
2014-07-28T08:38:26.513Z,27.62
2014-07-28T08:39:31.501Z,27.66
2014-07-28T08:40:36.190Z,27.71
2014-07-28T08:41:40.880Z,27.82
2014-07-28T08:42:45.866Z,27.23
2014-07-28T08:43:50.556Z,27.37
2014-07-28T08:44:55.245Z,27.64
2014-07-28T08:46:00.231Z,27.91
2014-07-28T08:47:04.921Z,28
2014-07-28T08:48:09.907Z,28.2
2014-07-28T08:49:14.909Z,28.34
2014-07-28T08:50:19.583Z,28.31
2014-07-28T08:51:24.273Z,28.52
2014-07-28T08:52:28.962Z,28.57
2014-07-28T08:53:33.653Z,28.93
2014-07-28T08:54:38.357Z,29.26
2014-07-28T08:55:43.047Z,29.03
2014-07-28T08:56:47.737Z,29.06
2014-07-28T08:57:52.426Z,29.11
2014-07-28T08:58:57.413Z,29.16
2014-07-28T09:00:02.102Z,29.02
2014-07-28T09:01:06.792Z,29.15
2014-07-28T09:02:11.481Z,29.27
2014-07-28T09:03:16.468Z,29.33
2014-07-28T09:04:21.157Z,29.33
2014-07-28T09:05:26.142Z,29.3
2014-07-28T09:06:30.850Z,28.67
2014-07-28T09:07:35.836Z,27.96
2014-07-28T09:08:40.525Z,27.94
2014-07-28T09:09:45.215Z,27.47
2014-07-28T09:10:49.905Z,28.2
2014-07-28T09:11:54.892Z,28.58
2014-07-28T09:12:59.581Z,28.72
2014-07-28T09:14:03.583Z,28.8
2014-07-28T09:15:08.273Z,28.6
2014-07-28T09:16:12.962Z,28.38
2014-07-28T09:17:17.653Z,28.85
2014-07-28T09:18:22.341Z,28.4
2014-07-28T09:19:27.031Z,28.49
2014-07-28T09:20:31.721Z,28.41
2014-07-28T09:21:36.425Z,28.64
2014-07-28T09:22:41.115Z,28.71
2014-07-28T09:23:45.805Z,28.43
2014-07-28T09:24:50.495Z,28.45
2014-07-28T09:25:55.465Z,28.11
2014-07-28T09:27:00.170Z,27.81
2014-07-28T09:28:04.860Z,27.98
2014-07-28T09:29:09.549Z,28.28
2014-07-28T09:30:14.238Z,28.11
2014-07-28T09:31:18.929Z,28.44
2014-07-28T09:32:23.618Z,28.49
2014-07-28T09:33:28.604Z,28.57
2014-07-28T09:34:33.294Z,28.02
2014-07-28T09:35:37.968Z,28.29
2014-07-28T09:36:42.657Z,28.39
2014-07-28T09:37:47.363Z,28.68
2014-07-28T09:38:52.349Z,28.62
2014-07-28T09:39:57.039Z,28.13
2014-07-28T09:41:02.025Z,28.26
2014-07-28T09:42:06.714Z,28.47
2014-07-28T09:43:11.420Z,28.56
2014-07-28T09:44:16.406Z,28.2
2014-07-28T09:45:21.095Z,28.07
2014-07-28T09:46:25.785Z,28.05
2014-07-28T09:47:30.772Z,28.22
2014-07-28T09:48:35.462Z,28.32
2014-07-28T09:49:40.151Z,27.92
2014-07-28T09:50:44.153Z,28.17
2014-07-28T09:51:48.843Z,28.02
2014-07-28T09:52:53.829Z,27.96
2014-07-28T09:53:58.519Z,28.07
2014-07-28T09:55:03.208Z,28.29
2014-07-28T09:56:07.898Z,28.69
2014-07-28T09:57:12.587Z,28.92
2014-07-28T09:58:17.277Z,28.95
2014-07-28T09:59:21.966Z,28.86
2014-07-28T10:00:26.952Z,29.18
2014-07-28T10:01:31.643Z,29.28
2014-07-28T10:02:36.333Z,29.38
2014-07-28T10:03:41.319Z,29.26
2014-07-28T10:04:46.009Z,28.91
2014-07-28T10:05:50.698Z,29.02
2014-07-28T10:06:55.387Z,29.04
2014-07-28T10:08:00.078Z,29.02
2014-07-28T10:09:04.766Z,29.07
2014-07-28T10:10:09.457Z,29.08
2014-07-28T10:11:14.146Z,29.18
2014-07-28T10:12:18.836Z,29.36
2014-07-28T10:13:23.525Z,29.35
2014-07-28T10:14:28.215Z,29.3
2014-07-28T10:15:32.904Z,29.24
2014-07-28T10:16:37.890Z,29.24
2014-07-28T10:17:41.893Z,29.35
2014-07-28T10:18:46.582Z,29.42
2014-07-28T10:19:51.272Z,29.06
2014-07-28T10:20:56.258Z,29.27
2014-07-28T10:22:00.948Z,29.26
2014-07-28T10:23:05.637Z,29.66
2014-07-28T10:24:10.327Z,29.8
2014-07-28T10:25:15.016Z,29.57
2014-07-28T10:26:20.003Z,29.45
2014-07-28T10:27:24.989Z,29.46
2014-07-28T10:28:29.694Z,29.32
2014-07-28T10:29:34.681Z,29.2
2014-07-28T10:30:39.372Z,29.67
2014-07-28T10:31:44.060Z,29.75
2014-07-28T10:32:48.750Z,29.86
2014-07-28T10:33:53.439Z,29.55
2014-07-28T10:34:58.129Z,29.19
2014-07-28T10:36:02.819Z,29.7
2014-07-28T10:37:07.508Z,29.86
2014-07-28T10:38:12.197Z,29.87
2014-07-28T10:39:16.887Z,29.7
2014-07-28T10:40:21.576Z,30.06
2014-07-28T10:41:26.266Z,29.74
2014-07-28T10:42:30.955Z,29.64
2014-07-28T10:43:35.645Z,29.84
2014-07-28T10:44:40.335Z,30.2
2014-07-28T10:45:45.025Z,30.33
2014-07-28T10:46:49.713Z,29.96
2014-07-28T10:47:54.403Z,30.27
2014-07-28T10:48:59.092Z,30.5
2014-07-28T10:50:03.782Z,30.74
2014-07-28T10:51:08.471Z,30.92
2014-07-28T10:52:13.162Z,30.94
2014-07-28T10:53:17.851Z,30.86
2014-07-28T10:54:22.541Z,31.13
2014-07-28T10:55:27.229Z,30.99
2014-07-28T10:56:31.921Z,30.75
2014-07-28T10:57:36.610Z,30.74
2014-07-28T10:58:41.300Z,30.09
2014-07-28T10:59:45.989Z,30.28
2014-07-28T11:00:50.991Z,30.64
2014-07-28T11:01:56.009Z,31.04
2014-07-28T11:03:00.699Z,30.72
2014-07-28T11:04:05.389Z,30.5
2014-07-28T11:05:10.078Z,30.36
2014-07-28T11:06:14.767Z,29.82
2014-07-28T11:07:19.457Z,29.87
2014-07-28T11:08:24.147Z,30.05
2014-07-28T11:09:28.836Z,30.16
2014-07-28T11:10:33.525Z,30.37
2014-07-28T11:11:38.215Z,30.48
2014-07-28T11:12:42.904Z,30.58
2014-07-28T11:13:47.890Z,30.92
2014-07-28T11:14:52.877Z,30.85
2014-07-28T11:15:57.863Z,30.95
2014-07-28T11:17:02.850Z,31
2014-07-28T11:18:07.539Z,31.05
2014-07-28T11:19:12.229Z,31.1
2014-07-28T11:20:17.215Z,31.27
2014-07-28T11:21:21.904Z,30.99
2014-07-28T11:22:26.594Z,30.94
2014-07-28T11:23:31.285Z,30.69
2014-07-28T11:24:35.975Z,30.62
2014-07-28T11:25:40.961Z,30.91
2014-07-28T11:26:45.651Z,30.86
2014-07-28T11:27:50.637Z,30.68
2014-07-28T11:28:55.327Z,30.78
2014-07-28T11:30:00.016Z,31
2014-07-28T11:31:04.706Z,30.74
2014-07-28T11:32:09.411Z,30.88
2014-07-28T11:33:14.397Z,30.99
2014-07-28T11:34:19.087Z,30.94
2014-07-28T11:35:23.776Z,30.82
2014-07-28T11:36:28.466Z,30.96
2014-07-28T11:37:33.155Z,30.91
2014-07-28T11:38:37.845Z,30.88
2014-07-28T11:39:42.534Z,30.86
2014-07-28T11:40:47.521Z,30.84
2014-07-28T11:41:52.210Z,31.06
2014-07-28T11:42:56.915Z,30.65
2014-07-28T11:44:01.620Z,30.6
2014-07-28T11:45:06.607Z,30.29
2014-07-28T11:46:11.296Z,30.37
2014-07-28T11:47:16.314Z,30.33
2014-07-28T11:48:21.003Z,30.13
2014-07-28T11:49:25.693Z,30.58
2014-07-28T11:50:30.383Z,30.4
2014-07-28T11:51:35.073Z,30.65
2014-07-28T11:52:40.058Z,30.44
2014-07-28T11:53:45.046Z,30.25
2014-07-28T11:54:50.062Z,30.45
2014-07-28T11:55:55.050Z,30.28
2014-07-28T11:57:00.066Z,30.54
2014-07-28T11:58:04.757Z,30.17
2014-07-28T11:59:09.446Z,30.23
2014-07-28T12:00:14.136Z,30.45
2014-07-28T12:01:19.122Z,30.31
2014-07-28T12:02:23.812Z,30.61
2014-07-28T12:03:28.501Z,30.78
2014-07-28T12:04:33.208Z,31.02
2014-07-28T12:05:37.898Z,30.44
2014-07-28T12:06:42.587Z,30.65
2014-07-28T12:07:47.574Z,30.35
2014-07-28T12:08:52.263Z,30.31
2014-07-28T12:09:56.952Z,30.2
2014-07-28T12:11:01.641Z,30.15
2014-07-28T12:12:06.331Z,29.98
2014-07-28T12:13:11.020Z,29.75
2014-07-28T12:14:15.710Z,29.94
2014-07-28T12:15:20.697Z,30.11
2014-07-28T12:16:25.386Z,29.97
2014-07-28T12:17:30.092Z,29.78
2014-07-28T12:18:34.781Z,30.05
2014-07-28T12:19:39.471Z,30.12
2014-07-28T12:20:44.457Z,30.32
2014-07-28T12:21:49.443Z,30.34
2014-07-28T12:22:54.133Z,30.34
2014-07-28T12:23:58.822Z,30.32
2014-07-28T12:25:03.512Z,29.76
2014-07-28T12:26:08.498Z,30.02
2014-07-28T12:27:13.203Z,30.21
2014-07-28T12:28:18.190Z,29.98
2014-07-28T12:29:22.879Z,30.32
2014-07-28T12:30:27.569Z,30.33
2014-07-28T12:31:32.258Z,30.31
2014-07-28T12:32:36.948Z,30.56
2014-07-28T12:33:41.637Z,30.67
2014-07-28T12:34:46.327Z,30.54
2014-07-28T12:35:51.016Z,30.08
2014-07-28T12:36:55.707Z,30.15
2014-07-28T12:38:00.412Z,30.2
2014-07-28T12:39:05.398Z,30.22
2014-07-28T12:40:10.385Z,30.31
2014-07-28T12:41:15.073Z,30.36
2014-07-28T12:42:19.763Z,30.31
2014-07-28T12:43:24.452Z,30.1
2014-07-28T12:44:29.142Z,30.54
2014-07-28T12:45:33.833Z,30.65
2014-07-28T12:46:38.819Z,30.98
2014-07-28T12:47:43.806Z,30.94
2014-07-28T12:48:48.495Z,31.01
2014-07-28T12:49:53.185Z,30.89
2014-07-28T12:50:58.172Z,30.59
2014-07-28T12:52:02.861Z,30.45
2014-07-28T12:53:07.550Z,30.52
2014-07-28T12:54:12.537Z,30.32
2014-07-28T12:55:17.226Z,30.34
2014-07-28T12:56:21.931Z,30.33
2014-07-28T12:57:26.918Z,29.91
2014-07-28T12:58:31.904Z,29.91
2014-07-28T12:59:36.594Z,29.95
2014-07-28T13:00:41.580Z,29.99
2014-07-28T13:01:46.269Z,30.05
2014-07-28T13:02:50.960Z,30.41
2014-07-28T13:03:55.665Z,30.61
2014-07-28T13:05:00.353Z,30.71
2014-07-28T13:06:05.044Z,30.62
2014-07-28T13:07:09.733Z,30.69
2014-07-28T13:08:14.423Z,30.74
2014-07-28T13:09:19.111Z,30.7
2014-07-28T13:10:23.817Z,30.8
2014-07-28T13:11:28.506Z,30.88
2014-07-28T13:12:33.198Z,31.07
2014-07-28T13:13:37.887Z,31.03
2014-07-28T13:14:42.592Z,31.16
2014-07-28T13:15:47.282Z,30.79
2014-07-28T13:16:51.971Z,30.32
2014-07-28T13:17:56.958Z,30.37
2014-07-28T13:19:01.647Z,30.6
2014-07-28T13:20:06.338Z,30.74
2014-07-28T13:21:11.027Z,30.8
2014-07-28T13:22:16.013Z,30.9
2014-07-28T13:23:20.703Z,30.64
2014-07-28T13:24:25.391Z,30.91
2014-07-28T13:25:30.081Z,31.13
2014-07-28T13:26:34.771Z,30.91
2014-07-28T13:27:39.461Z,30.95
2014-07-28T13:28:44.150Z,30.85
2014-07-28T13:29:48.840Z,30.84
2014-07-28T13:30:53.529Z,30.54
2014-07-28T13:31:58.516Z,30.25
2014-07-28T13:33:03.205Z,30.49
2014-07-28T13:34:07.909Z,30.42
2014-07-28T13:35:12.616Z,30.46
2014-07-28T13:36:17.321Z,30.19
2014-07-28T13:37:21.322Z,29.92
2014-07-28T13:38:26.028Z,29.67
2014-07-28T13:39:30.716Z,29.9
2014-07-28T13:40:35.407Z,29.97
2014-07-28T13:41:40.096Z,29.91
2014-07-28T13:42:45.083Z,30.16
2014-07-28T13:43:49.787Z,29.45
2014-07-28T13:44:54.477Z,29.94
2014-07-28T13:45:59.167Z,30.12
2014-07-28T13:47:03.856Z,30.04
2014-07-28T13:48:07.858Z,30.48
2014-07-28T13:49:12.548Z,30.7
2014-07-28T13:50:17.238Z,30.76
2014-07-28T13:51:22.521Z,30.84
2014-07-28T13:52:27.210Z,30.91
2014-07-28T13:53:31.902Z,30.84
2014-07-28T13:54:36.591Z,31.1
2014-07-28T13:55:41.281Z,30.52
2014-07-28T13:56:45.970Z,29.97